createdAt,value
2023-02-28T00:00:37.934Z,62.57
2023-02-28T00:03:19.151Z,62.53
2023-02-28T00:05:48.020Z,62.13
2023-02-28T00:08:17.232Z,62.16
2023-02-28T00:10:47.381Z,61.97
2023-02-28T00:13:16.602Z,62.09
2023-02-28T00:15:46.392Z,61.97
2023-02-28T00:18:15.615Z,62.41
2023-02-28T00:20:44.407Z,62.38
2023-02-28T00:23:13.480Z,62.92
2023-02-28T00:25:42.313Z,63.26
2023-02-28T00:28:12.773Z,62.90
2023-02-28T00:30:41.634Z,62.08
2023-02-28T00:33:10.935Z,63.02
2023-02-28T00:35:39.805Z,63.77
2023-02-28T00:38:12.010Z,63.45
2023-02-28T00:40:40.806Z,63.44
2023-02-28T00:43:09.982Z,63.87
2023-02-28T00:45:40.954Z,64.48
2023-02-28T00:48:10.054Z,63.83
2023-02-28T00:50:41.503Z,63.50
2023-02-28T00:53:10.585Z,63.95
2023-02-28T00:55:39.351Z,63.20
2023-02-28T00:58:08.435Z,63.87
2023-02-28T01:00:37.412Z,64.53
2023-02-28T01:03:08.024Z,63.72
2023-02-28T01:05:36.912Z,63.18
2023-02-28T01:08:07.362Z,62.69
2023-02-28T01:10:37.547Z,62.40
2023-02-28T01:13:06.734Z,62.92
2023-02-28T01:15:35.786Z,63.08
2023-02-28T01:18:05.079Z,63.92
2023-02-28T01:20:35.323Z,63.71
2023-02-28T01:23:04.401Z,63.94
2023-02-28T01:25:33.242Z,64.44
2023-02-28T01:28:02.328Z,64.70
2023-02-28T01:30:31.129Z,64.43
2023-02-28T01:33:00.270Z,63.83
2023-02-28T01:35:29.117Z,64.50
2023-02-28T01:38:09.518Z,64.83
2023-02-28T01:40:44.654Z,64.93
2023-02-28T01:43:24.681Z,64.95
2023-02-28T01:45:54.703Z,64.60
2023-02-28T01:48:29.575Z,63.65
2023-02-28T01:51:07.466Z,64.22
2023-02-28T01:53:47.735Z,63.94
2023-02-28T01:56:26.201Z,64.40
2023-02-28T01:58:57.194Z,64.85
2023-02-28T02:01:29.824Z,65.04
2023-02-28T02:04:04.533Z,63.99
2023-02-28T02:06:39.696Z,64.36
2023-02-28T02:09:15.400Z,65.06
2023-02-28T02:11:47.092Z,64.99
2023-02-28T02:14:49.762Z,64.84
2023-02-28T02:17:30.993Z,64.58
2023-02-28T02:20:38.241Z,64.70
2023-02-28T02:23:59.150Z,65.13
2023-02-28T02:27:05.959Z,65.12
2023-02-28T02:30:10.735Z,64.88
2023-02-28T02:33:38.374Z,65.76
2023-02-28T02:36:20.426Z,65.60
2023-02-28T02:38:59.834Z,65.27
2023-02-28T02:41:37.509Z,64.65
2023-02-28T02:44:20.159Z,64.65
2023-02-28T02:46:52.802Z,64.67
2023-02-28T02:49:28.556Z,64.37
2023-02-28T02:52:06.152Z,64.21
2023-02-28T02:54:39.384Z,64.26
2023-02-28T02:57:15.768Z,64.63
2023-02-28T02:59:45.815Z,65.14
2023-02-28T03:02:20.049Z,65.62
2023-02-28T03:04:54.725Z,66.14
2023-02-28T03:07:25.634Z,65.90
2023-02-28T03:09:57.029Z,66.17
2023-02-28T03:12:37.267Z,66.08
2023-02-28T03:15:20.335Z,65.84
2023-02-28T03:18:06.619Z,65.13
2023-02-28T03:20:45.227Z,65.21
2023-02-28T03:23:23.561Z,65.25
2023-02-28T03:26:04.116Z,65.48
2023-02-28T03:28:43.096Z,65.50
2023-02-28T03:31:21.475Z,66.20
2023-02-28T03:34:00.394Z,66.27
2023-02-28T03:36:37.532Z,66.41
2023-02-28T03:39:13.717Z,66.32
2023-02-28T03:41:50.776Z,66.96
2023-02-28T03:44:29.349Z,66.64
2023-02-28T03:47:05.636Z,67.55
2023-02-28T03:49:44.360Z,67.77
2023-02-28T03:52:13.510Z,67.84
2023-02-28T03:54:52.839Z,67.29
2023-02-28T03:57:35.044Z,67.60
2023-02-28T04:00:10.865Z,66.54
2023-02-28T04:02:43.083Z,65.91
2023-02-28T04:05:11.938Z,65.95
2023-02-28T04:07:41.112Z,66.27
2023-02-28T04:10:13.867Z,66.44
2023-02-28T04:12:43.105Z,66.89
2023-02-28T04:15:12.409Z,66.67
2023-02-28T04:17:41.451Z,67.26
2023-02-28T04:20:12.686Z,66.89
2023-02-28T04:22:41.782Z,67.23
2023-02-28T04:25:12.127Z,67.76
2023-02-28T04:27:41.164Z,68.17
2023-02-28T04:30:11.987Z,67.94
2023-02-28T04:32:41.249Z,67.68
2023-02-28T04:35:12.467Z,66.55
2023-02-28T04:37:41.627Z,66.49
2023-02-28T04:40:13.410Z,66.12
2023-02-28T04:42:42.425Z,66.71
2023-02-28T04:45:12.317Z,66.90
2023-02-28T04:47:41.389Z,66.23
2023-02-28T04:50:12.005Z,66.13
2023-02-28T04:52:41.116Z,66.18
2023-02-28T04:55:12.386Z,66.29
2023-02-28T04:57:43.645Z,66.70
2023-02-28T05:00:17.769Z,66.45
2023-02-28T05:02:46.856Z,66.38
2023-02-28T05:05:19.180Z,66.78
2023-02-28T05:07:48.264Z,66.62
2023-02-28T05:10:19.085Z,67.02
2023-02-28T05:12:49.045Z,67.32
2023-02-28T05:15:19.147Z,67.04
2023-02-28T05:17:48.291Z,66.86
2023-02-28T05:20:18.148Z,66.83
2023-02-28T05:22:47.494Z,66.48
2023-02-28T05:25:22.606Z,67.48
2023-02-28T05:27:51.859Z,67.99
2023-02-28T05:30:20.929Z,69.20
2023-02-28T05:32:53.813Z,69.07
2023-02-28T05:35:22.748Z,69.44
2023-02-28T05:37:51.873Z,69.13
2023-02-28T05:40:22.308Z,69.02
2023-02-28T05:42:53.216Z,69.10
2023-02-28T05:45:21.950Z,69.30
2023-02-28T05:47:51.136Z,68.97
2023-02-28T05:50:20.119Z,69.04
2023-02-28T05:52:52.221Z,68.54
2023-02-28T05:55:22.423Z,68.37
2023-02-28T05:57:51.431Z,69.18
2023-02-28T06:00:21.312Z,69.37
2023-02-28T06:02:50.395Z,69.14
2023-02-28T06:05:20.371Z,69.48
2023-02-28T06:07:49.464Z,69.82
2023-02-28T06:10:18.644Z,69.95
2023-02-28T06:12:49.132Z,69.53
2023-02-28T06:15:19.118Z,69.69
2023-02-28T06:17:48.157Z,69.63
2023-02-28T06:20:17.249Z,69.28
2023-02-28T06:22:46.333Z,69.51
2023-02-28T06:25:15.141Z,69.54
2023-02-28T06:27:44.636Z,69.98
2023-02-28T06:30:15.737Z,69.61
2023-02-28T06:32:44.823Z,69.95
2023-02-28T06:35:14.784Z,69.37
2023-02-28T06:37:44.971Z,69.75
2023-02-28T06:40:15.070Z,69.00
2023-02-28T06:42:44.376Z,69.03
2023-02-28T06:45:15.013Z,68.56
2023-02-28T06:47:44.667Z,68.26
2023-02-28T06:50:15.172Z,68.41
2023-02-28T06:52:44.260Z,67.82
2023-02-28T06:55:13.359Z,67.25
2023-02-28T06:57:42.445Z,66.85
2023-02-28T07:00:15.296Z,66.18
2023-02-28T07:02:44.383Z,65.02
2023-02-28T07:05:13.315Z,64.67
2023-02-28T07:07:45.341Z,64.74
2023-02-28T07:10:20.199Z,63.22
2023-02-28T07:12:49.492Z,60.76
2023-02-28T07:15:19.696Z,60.14
2023-02-28T07:17:49.024Z,59.10
2023-02-28T07:20:18.314Z,57.84
2023-02-28T07:22:47.061Z,56.76
2023-02-28T07:25:16.525Z,55.78
2023-02-28T07:27:45.344Z,55.69
2023-02-28T07:30:15.469Z,55.58
2023-02-28T07:32:45.696Z,54.89
2023-02-28T07:35:16.225Z,53.94
2023-02-28T07:37:45.155Z,52.44
2023-02-28T07:40:15.730Z,52.29
2023-02-28T07:42:44.841Z,51.78
2023-02-28T07:45:15.617Z,51.91
2023-02-28T07:47:46.496Z,51.26
2023-02-28T07:50:18.298Z,49.97
2023-02-28T07:52:47.139Z,48.73
2023-02-28T07:55:17.672Z,49.22
2023-02-28T07:57:46.895Z,48.45
2023-02-28T08:00:16.781Z,47.94
2023-02-28T08:02:46.957Z,47.81
2023-02-28T08:05:16.323Z,46.96
2023-02-28T08:07:45.335Z,47.06
2023-02-28T08:10:14.456Z,46.44
2023-02-28T08:12:43.282Z,46.99
2023-02-28T08:15:12.910Z,47.02
2023-02-28T08:17:41.871Z,47.25
2023-02-28T08:20:14.336Z,45.24
2023-02-28T08:22:45.855Z,45.34
2023-02-28T08:25:15.137Z,46.02
2023-02-28T08:27:44.203Z,46.36
2023-02-28T08:30:15.022Z,44.66
2023-02-28T08:32:44.043Z,44.62
2023-02-28T08:35:14.560Z,44.25
2023-02-28T08:37:43.578Z,44.75
2023-02-28T08:40:19.000Z,43.30
2023-02-28T08:42:48.139Z,43.25
2023-02-28T08:45:17.549Z,42.91
2023-02-28T08:47:46.393Z,43.14
2023-02-28T08:50:17.619Z,42.31
2023-02-28T08:52:46.507Z,42.84
2023-02-28T08:55:16.318Z,42.88
2023-02-28T08:57:45.586Z,42.50
2023-02-28T09:00:15.930Z,43.49
2023-02-28T09:02:44.859Z,42.85
2023-02-28T09:05:13.968Z,43.73
2023-02-28T09:07:44.216Z,44.06
2023-02-28T09:10:13.771Z,42.94
2023-02-28T09:12:42.652Z,42.47
2023-02-28T09:15:13.014Z,42.23
2023-02-28T09:17:42.174Z,40.72
2023-02-28T09:20:14.256Z,39.12
2023-02-28T09:22:44.463Z,38.63
2023-02-28T09:25:13.564Z,36.56
2023-02-28T09:27:43.122Z,35.80
2023-02-28T09:30:14.332Z,35.62
2023-02-28T09:32:43.238Z,34.70
2023-02-28T09:35:14.440Z,34.83
2023-02-28T09:37:44.599Z,35.23
2023-02-28T09:40:18.496Z,34.99
2023-02-28T09:42:50.643Z,35.45
2023-02-28T09:45:28.963Z,36.50
2023-02-28T09:48:05.335Z,36.42
2023-02-28T09:50:41.023Z,36.10
2023-02-28T09:53:23.305Z,35.18
2023-02-28T09:55:57.996Z,34.23
2023-02-28T09:58:35.902Z,33.62
2023-02-28T10:01:14.483Z,33.27
2023-02-28T10:03:53.534Z,31.75
2023-02-28T10:06:28.296Z,30.62
2023-02-28T10:09:06.289Z,30.93
2023-02-28T10:11:40.034Z,30.49
2023-02-28T10:14:17.944Z,30.24
2023-02-28T10:16:53.122Z,29.92
2023-02-28T10:19:33.690Z,29.89
2023-02-28T10:22:12.821Z,30.10
2023-02-28T10:24:46.612Z,28.75
2023-02-28T10:27:19.649Z,29.66
2023-02-28T10:29:52.282Z,28.57
2023-02-28T10:32:25.505Z,28.85
2023-02-28T10:34:59.751Z,28.86
2023-02-28T10:37:29.022Z,28.85
2023-02-28T10:39:59.294Z,28.75
2023-02-28T10:42:30.909Z,29.25
2023-02-28T10:45:15.156Z,29.28
2023-02-28T10:47:56.482Z,29.18
2023-02-28T10:50:45.296Z,28.20
2023-02-28T10:53:36.064Z,28.00
2023-02-28T10:56:19.827Z,27.68
2023-02-28T10:58:56.994Z,26.84
2023-02-28T11:01:37.934Z,26.67
2023-02-28T11:04:22.602Z,25.74
2023-02-28T11:07:00.417Z,25.34
2023-02-28T11:09:35.970Z,25.22
2023-02-28T11:12:09.941Z,24.87
2023-02-28T11:14:51.250Z,24.00
2023-02-28T11:17:25.344Z,23.57
2023-02-28T11:19:58.398Z,22.57
2023-02-28T11:22:33.661Z,21.57
2023-02-28T11:25:10.923Z,21.10
2023-02-28T11:27:51.080Z,20.07
2023-02-28T11:30:36.608Z,19.80
2023-02-28T11:33:28.342Z,20.03
2023-02-28T11:36:03.688Z,19.26
2023-02-28T11:38:37.690Z,19.19
2023-02-28T11:41:47.899Z,18.52
2023-02-28T11:44:40.818Z,18.17
2023-02-28T11:47:19.757Z,18.14
2023-02-28T11:50:06.239Z,17.66
2023-02-28T11:52:50.861Z,17.31
2023-02-28T11:55:27.936Z,16.79
2023-02-28T11:58:29.877Z,16.32
2023-02-28T12:01:40.020Z,16.48
2023-02-28T12:04:29.351Z,16.27
2023-02-28T12:07:05.908Z,15.88
2023-02-28T12:10:00.320Z,15.80
2023-02-28T12:12:51.849Z,16.08
2023-02-28T12:15:53.832Z,15.83
2023-02-28T12:18:54.786Z,15.90
2023-02-28T12:21:45.432Z,16.40
2023-02-28T12:24:55.061Z,15.91
2023-02-28T12:27:30.538Z,16.01
2023-02-28T12:30:04.898Z,16.10
2023-02-28T12:32:41.223Z,17.08
2023-02-28T12:35:19.764Z,19.85
2023-02-28T12:37:57.912Z,22.08
2023-02-28T12:40:40.231Z,24.76
2023-02-28T12:43:13.833Z,26.77
2023-02-28T12:45:50.104Z,28.22
2023-02-28T12:48:29.403Z,30.29
2023-02-28T12:51:03.249Z,31.78
2023-02-28T12:53:55.297Z,32.80
2023-02-28T12:56:40.940Z,33.52
2023-02-28T12:59:24.559Z,34.73
2023-02-28T13:02:43.373Z,35.62
2023-02-28T13:06:12.775Z,36.47
2023-02-28T13:09:13.481Z,36.89
2023-02-28T13:11:45.887Z,37.82
2023-02-28T13:14:31.430Z,38.25
2023-02-28T13:17:14.168Z,38.60
2023-02-28T13:19:48.729Z,38.44
2023-02-28T13:22:42.200Z,38.86
2023-02-28T13:25:55.549Z,38.73
2023-02-28T13:29:29.491Z,39.71
2023-02-28T13:32:44.016Z,39.94
2023-02-28T13:35:39.915Z,40.73
2023-02-28T13:38:37.095Z,41.12
2023-02-28T13:41:57.213Z,41.40
2023-02-28T13:44:27.837Z,40.32
2023-02-28T13:47:29.944Z,40.60
2023-02-28T13:50:22.935Z,40.60
2023-02-28T13:53:18.254Z,40.79
2023-02-28T13:56:00.872Z,40.97
2023-02-28T13:58:54.920Z,41.03
2023-02-28T14:02:02.722Z,42.15
2023-02-28T14:05:03.655Z,41.81
2023-02-28T14:07:40.728Z,42.00
2023-02-28T14:10:25.514Z,42.25
2023-02-28T14:13:13.397Z,41.80
2023-02-28T14:15:49.403Z,42.33
2023-02-28T14:18:38.341Z,41.98
2023-02-28T14:21:22.171Z,42.23
2023-02-28T14:24:28.638Z,41.91
2023-02-28T14:27:45.019Z,42.48
2023-02-28T14:30:54.112Z,42.67
2023-02-28T14:33:34.202Z,43.19
2023-02-28T14:36:23.555Z,43.08
2023-02-28T14:38:58.555Z,42.67
2023-02-28T14:41:36.359Z,42.57
2023-02-28T14:44:17.902Z,42.40
2023-02-28T14:46:54.306Z,42.64
2023-02-28T14:49:29.654Z,42.98
2023-02-28T14:52:11.868Z,42.98
2023-02-28T14:54:42.296Z,43.34
2023-02-28T14:57:25.484Z,43.28
2023-02-28T15:00:04.879Z,43.74
2023-02-28T15:02:38.097Z,44.12
2023-02-28T15:05:26.547Z,43.68
2023-02-28T15:08:12.824Z,43.62
2023-02-28T15:10:45.829Z,43.83
2023-02-28T15:13:17.195Z,43.75
2023-02-28T15:16:03.977Z,43.61
2023-02-28T15:18:48.567Z,43.25
2023-02-28T15:21:23.057Z,43.55
2023-02-28T15:23:57.196Z,43.89
2023-02-28T15:26:32.444Z,43.50
2023-02-28T15:29:05.740Z,43.78
2023-02-28T15:31:56.871Z,44.37
2023-02-28T15:34:45.100Z,44.36
2023-02-28T15:37:43.250Z,44.41
2023-02-28T15:40:24.573Z,45.09
2023-02-28T15:43:08.369Z,44.81
2023-02-28T15:45:46.260Z,46.91
2023-02-28T15:48:22.859Z,46.80
2023-02-28T15:50:56.921Z,47.10
2023-02-28T15:53:30.828Z,47.10
2023-02-28T15:56:07.538Z,46.82
2023-02-28T15:58:38.840Z,47.44
2023-02-28T16:01:20.739Z,47.71
2023-02-28T16:03:53.502Z,48.65
2023-02-28T16:06:36.729Z,48.30
2023-02-28T16:09:09.441Z,48.79
2023-02-28T16:11:45.284Z,49.34
2023-02-28T16:14:24.050Z,49.64
2023-02-28T16:16:56.936Z,50.35
2023-02-28T16:19:26.412Z,50.25
2023-02-28T16:21:56.916Z,51.34
2023-02-28T16:24:26.555Z,51.49
2023-02-28T16:26:59.107Z,51.77
2023-02-28T16:29:33.040Z,51.42
2023-02-28T16:32:02.674Z,52.10
2023-02-28T16:34:31.928Z,52.21
2023-02-28T16:37:02.132Z,52.72
2023-02-28T16:39:31.329Z,52.99
2023-02-28T16:42:00.287Z,52.97
2023-02-28T16:44:33.988Z,54.14
2023-02-28T16:47:05.181Z,54.39
2023-02-28T16:49:34.490Z,54.49
2023-02-28T16:52:05.634Z,55.22
2023-02-28T16:54:34.823Z,54.97
2023-02-28T16:57:03.938Z,55.33
2023-02-28T16:59:34.351Z,55.21
2023-02-28T17:02:03.383Z,55.44
2023-02-28T17:04:32.723Z,56.16
2023-02-28T17:07:01.535Z,56.23
2023-02-28T17:09:42.018Z,56.01
2023-02-28T17:12:13.121Z,56.53
2023-02-28T17:14:42.259Z,56.48
2023-02-28T17:17:19.084Z,56.58
2023-02-28T17:19:48.395Z,56.80
2023-02-28T17:22:17.154Z,57.21
2023-02-28T17:24:47.622Z,57.46
2023-02-28T17:27:16.698Z,57.55
2023-02-28T17:29:45.786Z,58.28
2023-02-28T17:32:18.754Z,58.66
2023-02-28T17:34:48.035Z,59.02
2023-02-28T17:37:16.961Z,58.74
2023-02-28T17:39:47.786Z,59.37
2023-02-28T17:42:16.805Z,58.97
2023-02-28T17:44:45.884Z,59.29
2023-02-28T17:47:14.989Z,59.56
2023-02-28T17:49:44.123Z,59.81
2023-02-28T17:52:12.947Z,60.53
2023-02-28T17:54:42.067Z,60.78
2023-02-28T17:57:17.404Z,60.77
2023-02-28T17:59:46.547Z,61.04
2023-02-28T18:02:16.966Z,60.23
2023-02-28T18:04:46.097Z,61.01
2023-02-28T18:07:14.902Z,60.85
2023-02-28T18:09:44.024Z,61.21
2023-02-28T18:12:14.243Z,61.31
2023-02-28T18:14:43.510Z,61.52
2023-02-28T18:17:14.260Z,62.09
2023-02-28T18:19:43.534Z,61.40
2023-02-28T18:22:12.367Z,61.30
2023-02-28T18:24:42.063Z,61.14
2023-02-28T18:27:12.498Z,60.94
2023-02-28T18:29:43.032Z,61.50
2023-02-28T18:32:12.064Z,62.08
2023-02-28T18:34:41.208Z,61.92
2023-02-28T18:37:11.849Z,62.36
2023-02-28T18:39:41.258Z,62.05
2023-02-28T18:42:10.188Z,62.50
2023-02-28T18:44:39.580Z,62.20
2023-02-28T18:47:09.994Z,62.36
2023-02-28T18:49:39.216Z,62.74
2023-02-28T18:52:08.049Z,62.95
2023-02-28T18:54:37.398Z,62.87
2023-02-28T18:57:06.726Z,62.52
2023-02-28T18:59:36.610Z,62.41
2023-02-28T19:02:05.497Z,62.91
2023-02-28T19:04:35.961Z,63.14
2023-02-28T19:07:04.892Z,63.54
2023-02-28T19:09:33.995Z,64.11
2023-02-28T19:12:02.845Z,64.75
2023-02-28T19:14:32.251Z,64.09
2023-02-28T19:17:01.166Z,63.64
2023-02-28T19:19:30.819Z,63.87
2023-02-28T19:22:01.086Z,63.97
2023-02-28T19:24:30.546Z,64.08
2023-02-28T19:26:59.381Z,64.77
2023-02-28T19:29:28.573Z,64.29
2023-02-28T19:31:57.553Z,64.57
2023-02-28T19:34:26.792Z,64.22
2023-02-28T19:36:55.590Z,65.30
2023-02-28T19:39:26.110Z,65.05
2023-02-28T19:41:55.255Z,64.86
2023-02-28T19:44:24.353Z,65.22
2023-02-28T19:46:54.526Z,65.17
2023-02-28T19:49:25.985Z,64.71
2023-02-28T19:51:54.948Z,64.49
2023-02-28T19:54:25.628Z,65.11
2023-02-28T19:56:57.599Z,65.66
2023-02-28T19:59:38.353Z,66.15
2023-02-28T20:02:14.879Z,66.23
2023-02-28T20:04:47.558Z,66.46
2023-02-28T20:07:17.021Z,65.77
2023-02-28T20:09:47.988Z,66.13
2023-02-28T20:12:25.092Z,66.16
2023-02-28T20:14:57.043Z,66.46
2023-02-28T20:17:26.477Z,66.26
2023-02-28T20:19:55.580Z,66.94
2023-02-28T20:22:24.457Z,66.70
2023-02-28T20:24:55.048Z,66.83
2023-02-28T20:27:23.973Z,67.11
2023-02-28T20:29:53.305Z,67.26
2023-02-28T20:32:22.227Z,66.95
2023-02-28T20:34:51.293Z,67.53
2023-02-28T20:37:20.296Z,67.63
2023-02-28T20:39:49.725Z,67.28
2023-02-28T20:42:20.294Z,67.21
2023-02-28T20:44:49.409Z,67.18
2023-02-28T20:47:18.290Z,67.24
2023-02-28T20:49:47.462Z,67.45
2023-02-28T20:52:16.367Z,67.46
2023-02-28T20:54:45.588Z,67.52
2023-02-28T20:57:14.498Z,67.82
2023-02-28T20:59:44.986Z,68.42
2023-02-28T21:02:17.960Z,68.64
2023-02-28T21:04:47.197Z,68.90
2023-02-28T21:07:16.448Z,68.35
2023-02-28T21:09:45.616Z,68.65
2023-02-28T21:12:14.470Z,68.42
2023-02-28T21:14:45.014Z,68.38
2023-02-28T21:17:13.803Z,68.26
2023-02-28T21:19:42.998Z,68.36
2023-02-28T21:22:12.054Z,68.69
2023-02-28T21:24:41.393Z,68.33
2023-02-28T21:27:10.216Z,68.15
2023-02-28T21:29:39.626Z,68.60
2023-02-28T21:32:09.958Z,69.02
2023-02-28T21:34:39.432Z,68.74
2023-02-28T21:37:08.647Z,69.38
2023-02-28T21:39:37.858Z,68.89
2023-02-28T21:42:06.796Z,69.57
2023-02-28T21:44:35.978Z,69.60
2023-02-28T21:47:05.437Z,69.89
2023-02-28T21:49:36.125Z,70.11
2023-02-28T21:52:05.018Z,69.91
2023-02-28T21:54:34.136Z,69.90
2023-02-28T21:57:03.084Z,69.93
2023-02-28T21:59:32.432Z,70.03
2023-02-28T22:02:01.342Z,69.81
2023-02-28T22:04:30.436Z,70.04
2023-02-28T22:07:00.624Z,69.91
2023-02-28T22:09:30.584Z,70.47
2023-02-28T22:11:59.939Z,70.24
2023-02-28T22:14:29.118Z,70.33
2023-02-28T22:16:58.446Z,70.35
2023-02-28T22:19:29.058Z,70.19
2023-02-28T22:22:00.045Z,70.19
2023-02-28T22:24:28.917Z,70.45
2023-02-28T22:26:58.544Z,69.77
2023-02-28T22:29:27.370Z,70.49
2023-02-28T22:31:56.488Z,70.97
2023-02-28T22:34:25.334Z,70.71
2023-02-28T22:36:54.453Z,71.52
2023-02-28T22:39:25.717Z,71.21
2023-02-28T22:41:57.018Z,71.40
2023-02-28T22:44:25.841Z,70.92
2023-02-28T22:46:55.920Z,70.79
2023-02-28T22:49:25.136Z,71.38
2023-02-28T22:51:54.334Z,71.42
2023-02-28T22:54:24.494Z,71.23
2023-02-28T22:56:53.550Z,71.77
2023-02-28T22:59:22.931Z,71.71
2023-02-28T23:01:52.031Z,71.64
2023-02-28T23:04:20.932Z,72.27
2023-02-28T23:06:50.117Z,72.08
2023-02-28T23:09:21.562Z,72.16
2023-02-28T23:11:53.997Z,71.65
2023-02-28T23:14:23.283Z,71.66
2023-02-28T23:16:55.866Z,71.71
2023-02-28T23:19:27.845Z,71.47
2023-02-28T23:21:57.763Z,72.07
2023-02-28T23:24:28.938Z,72.15
2023-02-28T23:27:04.405Z,72.56
2023-02-28T23:29:34.238Z,72.40
2023-02-28T23:32:03.995Z,72.66
2023-02-28T23:34:33.400Z,72.68
2023-02-28T23:37:03.822Z,72.83
2023-02-28T23:39:33.001Z,73.29
2023-02-28T23:42:03.526Z,73.23
2023-02-28T23:44:32.475Z,73.04
2023-02-28T23:47:01.588Z,72.17
2023-02-28T23:49:30.387Z,72.18
2023-02-28T23:52:00.036Z,72.45
2023-02-28T23:54:29.747Z,72.79
2023-02-28T23:56:59.036Z,73.03
2023-02-28T23:59:29.749Z,73.21
